sensor_id;sensor_type;location;lat;lon;timestamp;pressure;altitude;pressure_sealevel;temperature;humidity
36454;BME280;22478;51.740;-1.314;2022-12-11T00:01:20;99630.75;;;-0.92;100.00
36454;BME280;22478;51.740;-1.314;2022-12-11T00:03:48;99631.35;;;-1.80;100.00
36454;BME280;22478;51.740;-1.314;2022-12-11T00:06:17;99640.09;;;-5.84;100.00
36454;BME280;22478;51.740;-1.314;2022-12-11T00:08:45;99626.43;;;-2.76;100.00
36454;BME280;22478;51.740;-1.314;2022-12-11T00:11:14;99619.79;;;-0.96;100.00
36454;BME280;22478;51.740;-1.314;2022-12-11T00:13:42;99623.71;;;-2.30;100.00
36454;BME280;22478;51.740;-1.314;2022-12-11T00:16:09;99615.69;;;-1.16;100.00
36454;BME280;22478;51.740;-1.314;2022-12-11T00:18:37;99613.35;;;-0.77;100.00
36454;BME280;22478;51.740;-1.314;2022-12-11T00:21:06;99617.26;;;-0.94;100.00
36454;BME280;22478;51.740;-1.314;2022-12-11T00:23:34;99621.10;;;-1.49;100.00
36454;BME280;22478;51.740;-1.314;2022-12-11T00:26:05;99621.20;;;-2.71;100.00
36454;BME280;22478;51.740;-1.314;2022-12-11T00:28:33;99615.17;;;-1.43;100.00
36454;BME280;22478;51.740;-1.314;2022-12-11T00:31:03;99618.61;;;-0.70;100.00
36454;BME280;22478;51.740;-1.314;2022-12-11T00:33:30;99621.24;;;-2.80;100.00
36454;BME280;22478;51.740;-1.314;2022-12-11T00:35:57;99636.62;;;-6.45;100.00
36454;BME280;22478;51.740;-1.314;2022-12-11T00:38:25;99636.52;;;-4.99;100.00
36454;BME280;22478;51.740;-1.314;2022-12-11T00:40:52;99621.84;;;-2.63;100.00
36454;BME280;22478;51.740;-1.314;2022-12-11T00:43:19;99612.38;;;-1.74;100.00
36454;BME280;22478;51.740;-1.314;2022-12-11T00:45:46;99613.39;;;-2.34;100.00
36454;BME280;22478;51.740;-1.314;2022-12-11T00:48:14;99609.25;;;-3.61;100.00
36454;BME280;22478;51.740;-1.314;2022-12-11T00:50:42;99600.41;;;-1.61;100.00
36454;BME280;22478;51.740;-1.314;2022-12-11T00:53:09;99598.50;;;-1.21;100.00
36454;BME280;22478;51.740;-1.314;2022-12-11T00:55:36;99602.06;;;-0.74;100.00
36454;BME280;22478;51.740;-1.314;2022-12-11T00:58:05;99604.60;;;-2.62;100.00
36454;BME280;22478;51.740;-1.314;2022-12-11T01:00:33;99601.15;;;-1.55;100.00
36454;BME280;22478;51.740;-1.314;2022-12-11T01:03:01;99601.61;;;-1.08;100.00
36454;BME280;22478;51.740;-1.314;2022-12-11T01:05:30;99603.94;;;-1.36;100.00
36454;BME280;22478;51.740;-1.314;2022-12-11T01:07:57;99603.13;;;-2.05;100.00
36454;BME280;22478;51.740;-1.314;2022-12-11T01:10:25;99606.14;;;-1.17;100.00
36454;BME280;22478;51.740;-1.314;2022-12-11T01:12:55;99603.04;;;-0.71;99.92
36454;BME280;22478;51.740;-1.314;2022-12-11T01:15:24;99604.49;;;-1.20;100.00
36454;BME280;22478;51.740;-1.314;2022-12-11T01:17:52;99601.57;;;-1.03;100.00
36454;BME280;22478;51.740;-1.314;2022-12-11T01:20:21;99600.76;;;-0.33;100.00
36454;BME280;22478;51.740;-1.314;2022-12-11T01:22:51;99597.58;;;-1.16;100.00
36454;BME280;22478;51.740;-1.314;2022-12-11T01:25:18;99597.37;;;-0.52;100.00
36454;BME280;22478;51.740;-1.314;2022-12-11T01:27:46;99600.95;;;-2.09;100.00
36454;BME280;22478;51.740;-1.314;2022-12-11T01:30:13;99595.82;;;-1.64;100.00
36454;BME280;22478;51.740;-1.314;2022-12-11T01:32:40;99588.55;;;0.09;100.00
36454;BME280;22478;51.740;-1.314;2022-12-11T01:35:09;99588.75;;;-0.38;100.00
36454;BME280;22478;51.740;-1.314;2022-12-11T01:37:36;99603.91;;;-6.31;100.00
36454;BME280;22478;51.740;-1.314;2022-12-11T01:40:07;99607.33;;;-5.99;100.00
36454;BME280;22478;51.740;-1.314;2022-12-11T01:42:35;99598.20;;;-4.17;100.00
36454;BME280;22478;51.740;-1.314;2022-12-11T01:45:26;99593.83;;;-2.33;100.00
36454;BME280;22478;51.740;-1.314;2022-12-11T01:47:58;99586.97;;;-1.65;100.00
36454;BME280;22478;51.740;-1.314;2022-12-11T01:50:27;99578.60;;;-1.38;100.00
36454;BME280;22478;51.740;-1.314;2022-12-11T01:52:55;99578.32;;;-1.28;100.00
36454;BME280;22478;51.740;-1.314;2022-12-11T01:55:23;99583.52;;;-2.93;100.00
36454;BME280;22478;51.740;-1.314;2022-12-11T01:57:51;99582.52;;;-2.97;100.00
36454;BME280;22478;51.740;-1.314;2022-12-11T02:00:20;99582.49;;;-2.50;100.00
36454;BME280;22478;51.740;-1.314;2022-12-11T02:02:47;99582.47;;;-1.49;100.00
36454;BME280;22478;51.740;-1.314;2022-12-11T02:05:15;99582.04;;;-1.45;100.00
36454;BME280;22478;51.740;-1.314;2022-12-11T02:07:45;99578.24;;;-0.06;94.96
36454;BME280;22478;51.740;-1.314;2022-12-11T02:10:14;99579.87;;;-0.67;96.52
36454;BME280;22478;51.740;-1.314;2022-12-11T02:12:51;99576.62;;;-0.93;100.00
36454;BME280;22478;51.740;-1.314;2022-12-11T02:15:26;99574.24;;;-1.36;100.00
36454;BME280;22478;51.740;-1.314;2022-12-11T02:18:03;99573.58;;;-0.52;100.00
36454;BME280;22478;51.740;-1.314;2022-12-11T02:20:35;99574.00;;;-1.09;100.00
36454;BME280;22478;51.740;-1.314;2022-12-11T02:23:25;99577.22;;;-0.55;96.03
36454;BME280;22478;51.740;-1.314;2022-12-11T02:26:08;99576.41;;;-0.36;96.33
36454;BME280;22478;51.740;-1.314;2022-12-11T02:28:41;99572.57;;;-0.08;95.63
36454;BME280;22478;51.740;-1.314;2022-12-11T02:31:14;99573.27;;;0.24;90.69
36454;BME280;22478;51.740;-1.314;2022-12-11T02:33:46;99573.44;;;0.53;89.06
36454;BME280;22478;51.740;-1.314;2022-12-11T02:36:17;99572.12;;;-0.14;93.64
36454;BME280;22478;51.740;-1.314;2022-12-11T02:38:48;99570.30;;;-0.78;95.66
36454;BME280;22478;51.740;-1.314;2022-12-11T02:41:19;99564.98;;;-0.75;93.85
36454;BME280;22478;51.740;-1.314;2022-12-11T02:43:48;99563.64;;;-0.90;97.13
36454;BME280;22478;51.740;-1.314;2022-12-11T02:46:17;99562.00;;;-1.07;98.99
36454;BME280;22478;51.740;-1.314;2022-12-11T02:48:47;99569.02;;;-1.92;100.00
36454;BME280;22478;51.740;-1.314;2022-12-11T02:51:17;99572.78;;;-2.55;100.00
36454;BME280;22478;51.740;-1.314;2022-12-11T02:53:47;99572.72;;;-2.54;100.00
36454;BME280;22478;51.740;-1.314;2022-12-11T02:56:19;99570.21;;;-2.40;100.00
36454;BME280;22478;51.740;-1.314;2022-12-11T02:58:53;99561.56;;;-2.38;100.00
36454;BME280;22478;51.740;-1.314;2022-12-11T03:01:21;99558.71;;;-4.46;100.00
36454;BME280;22478;51.740;-1.314;2022-12-11T03:03:48;99555.47;;;-3.34;100.00
36454;BME280;22478;51.740;-1.314;2022-12-11T03:06:19;99557.82;;;-3.72;100.00
36454;BME280;22478;51.740;-1.314;2022-12-11T03:08:47;99552.93;;;-1.57;100.00
36454;BME280;22478;51.740;-1.314;2022-12-11T03:11:14;99564.20;;;-4.84;100.00
36454;BME280;22478;51.740;-1.314;2022-12-11T03:13:42;99560.35;;;-4.53;100.00
36454;BME280;22478;51.740;-1.314;2022-12-11T03:16:13;99565.99;;;-9.52;100.00
36454;BME280;22478;51.740;-1.314;2022-12-11T03:18:46;99554.72;;;-5.03;100.00
36454;BME280;22478;51.740;-1.314;2022-12-11T03:21:23;99555.48;;;-7.30;100.00
36454;BME280;22478;51.740;-1.314;2022-12-11T03:23:57;99552.96;;;-8.34;100.00
36454;BME280;22478;51.740;-1.314;2022-12-11T03:26:29;99544.07;;;-5.97;100.00
36454;BME280;22478;51.740;-1.314;2022-12-11T03:29:00;99551.12;;;-8.49;100.00
36454;BME280;22478;51.740;-1.314;2022-12-11T03:31:33;99554.36;;;-9.68;100.00
36454;BME280;22478;51.740;-1.314;2022-12-11T03:34:09;99541.04;;;-6.82;100.00
36454;BME280;22478;51.740;-1.314;2022-12-11T03:36:43;99530.52;;;-5.60;100.00
36454;BME280;22478;51.740;-1.314;2022-12-11T03:39:15;99539.47;;;-8.66;100.00
36454;BME280;22478;51.740;-1.314;2022-12-11T03:41:46;99535.98;;;-4.73;100.00
36454;BME280;22478;51.740;-1.314;2022-12-11T03:44:15;99531.82;;;-3.63;100.00
36454;BME280;22478;51.740;-1.314;2022-12-11T03:46:43;99540.99;;;-6.73;100.00
36454;BME280;22478;51.740;-1.314;2022-12-11T03:49:16;99555.11;;;-9.44;100.00
36454;BME280;22478;51.740;-1.314;2022-12-11T03:51:47;99550.17;;;-9.68;100.00
36454;BME280;22478;51.740;-1.314;2022-12-11T03:54:16;99541.45;;;-7.16;100.00
36454;BME280;22478;51.740;-1.314;2022-12-11T03:56:45;99535.18;;;-5.76;100.00
36454;BME280;22478;51.740;-1.314;2022-12-11T03:59:14;99541.18;;;-7.13;100.00
36454;BME280;22478;51.740;-1.314;2022-12-11T04:01:42;99537.36;;;-5.66;100.00
36454;BME280;22478;51.740;-1.314;2022-12-11T04:04:09;99534.39;;;-5.56;100.00
36454;BME280;22478;51.740;-1.314;2022-12-11T04:06:36;99538.59;;;-6.55;100.00
36454;BME280;22478;51.740;-1.314;2022-12-11T04:09:04;99532.35;;;-5.53;100.00
36454;BME280;22478;51.740;-1.314;2022-12-11T04:11:31;99541.90;;;-7.78;100.00
36454;BME280;22478;51.740;-1.314;2022-12-11T04:13:58;99536.82;;;-6.16;100.00
36454;BME280;22478;51.740;-1.314;2022-12-11T04:16:25;99539.53;;;-7.33;100.00
36454;BME280;22478;51.740;-1.314;2022-12-11T04:18:53;99538.05;;;-6.98;100.00
36454;BME280;22478;51.740;-1.314;2022-12-11T04:21:20;99536.94;;;-6.34;100.00
36454;BME280;22478;51.740;-1.314;2022-12-11T04:23:48;99533.58;;;-6.14;100.00
36454;BME280;22478;51.740;-1.314;2022-12-11T04:26:17;99527.63;;;-5.96;100.00
36454;BME280;22478;51.740;-1.314;2022-12-11T04:28:46;99522.50;;;-4.92;100.00
36454;BME280;22478;51.740;-1.314;2022-12-11T04:31:15;99517.15;;;-4.78;100.00
36454;BME280;22478;51.740;-1.314;2022-12-11T04:33:43;99511.42;;;-3.81;100.00
36454;BME280;22478;51.740;-1.314;2022-12-11T04:36:11;99512.87;;;-5.71;100.00
36454;BME280;22478;51.740;-1.314;2022-12-11T04:38:39;99508.53;;;-5.13;100.00
36454;BME280;22478;51.740;-1.314;2022-12-11T04:41:08;99512.31;;;-6.26;100.00
36454;BME280;22478;51.740;-1.314;2022-12-11T04:43:36;99509.73;;;-5.26;100.00
36454;BME280;22478;51.740;-1.314;2022-12-11T04:46:06;99506.97;;;-4.80;100.00
36454;BME280;22478;51.740;-1.314;2022-12-11T04:48:34;99500.13;;;-4.09;100.00
36454;BME280;22478;51.740;-1.314;2022-12-11T04:51:01;99492.26;;;-3.87;100.00
36454;BME280;22478;51.740;-1.314;2022-12-11T04:53:28;99492.51;;;-4.31;100.00
36454;BME280;22478;51.740;-1.314;2022-12-11T04:55:56;99491.51;;;-3.48;100.00
36454;BME280;22478;51.740;-1.314;2022-12-11T04:58:24;99487.70;;;-3.93;100.00
36454;BME280;22478;51.740;-1.314;2022-12-11T05:00:52;99488.49;;;-3.33;100.00
36454;BME280;22478;51.740;-1.314;2022-12-11T05:03:19;99506.12;;;-8.14;100.00
36454;BME280;22478;51.740;-1.314;2022-12-11T05:05:48;99501.66;;;-5.92;100.00
36454;BME280;22478;51.740;-1.314;2022-12-11T05:08:16;99499.88;;;-5.80;100.00
36454;BME280;22478;51.740;-1.314;2022-12-11T05:10:43;99488.43;;;-4.33;100.00
36454;BME280;22478;51.740;-1.314;2022-12-11T05:13:11;99478.00;;;-3.57;100.00
36454;BME280;22478;51.740;-1.314;2022-12-11T05:15:38;99481.82;;;-2.99;100.00
36454;BME280;22478;51.740;-1.314;2022-12-11T05:18:05;99496.58;;;-7.91;100.00
36454;BME280;22478;51.740;-1.314;2022-12-11T05:20:33;99500.33;;;-5.01;100.00
36454;BME280;22478;51.740;-1.314;2022-12-11T05:23:00;99496.62;;;-3.94;100.00
36454;BME280;22478;51.740;-1.314;2022-12-11T05:25:28;99495.19;;;-2.67;100.00
36454;BME280;22478;51.740;-1.314;2022-12-11T05:27:55;99497.57;;;-4.18;100.00
36454;BME280;22478;51.740;-1.314;2022-12-11T05:30:22;99499.78;;;-2.71;100.00
36454;BME280;22478;51.740;-1.314;2022-12-11T05:32:50;99502.38;;;-3.12;100.00
36454;BME280;22478;51.740;-1.314;2022-12-11T05:35:17;99496.52;;;-2.08;100.00
36454;BME280;22478;51.740;-1.314;2022-12-11T05:37:44;99488.80;;;-2.69;100.00
36454;BME280;22478;51.740;-1.314;2022-12-11T05:40:12;99486.71;;;-2.09;100.00
36454;BME280;22478;51.740;-1.314;2022-12-11T05:42:39;99483.93;;;-1.74;100.00
36454;BME280;22478;51.740;-1.314;2022-12-11T05:45:07;99479.33;;;-2.62;100.00
36454;BME280;22478;51.740;-1.314;2022-12-11T05:47:35;99478.40;;;-2.45;100.00
36454;BME280;22478;51.740;-1.314;2022-12-11T05:50:03;99478.07;;;-2.57;100.00
36454;BME280;22478;51.740;-1.314;2022-12-11T05:52:31;99475.37;;;-4.43;100.00
36454;BME280;22478;51.740;-1.314;2022-12-11T05:54:58;99480.27;;;-4.28;100.00
36454;BME280;22478;51.740;-1.314;2022-12-11T05:57:25;99484.43;;;-6.04;100.00
36454;BME280;22478;51.740;-1.314;2022-12-11T05:59:53;99485.75;;;-5.96;100.00
36454;BME280;22478;51.740;-1.314;2022-12-11T06:02:20;99486.24;;;-5.30;100.00
36454;BME280;22478;51.740;-1.314;2022-12-11T06:04:48;99489.40;;;-5.58;100.00
36454;BME280;22478;51.740;-1.314;2022-12-11T06:07:15;99487.66;;;-7.56;100.00
36454;BME280;22478;51.740;-1.314;2022-12-11T06:09:42;99483.51;;;-5.67;100.00
36454;BME280;22478;51.740;-1.314;2022-12-11T06:12:10;99485.06;;;-6.69;100.00
36454;BME280;22478;51.740;-1.314;2022-12-11T06:14:37;99484.46;;;-6.55;100.00
36454;BME280;22478;51.740;-1.314;2022-12-11T06:17:04;99484.66;;;-6.77;100.00
36454;BME280;22478;51.740;-1.314;2022-12-11T06:19:32;99483.16;;;-5.89;100.00
36454;BME280;22478;51.740;-1.314;2022-12-11T06:21:59;99484.78;;;-6.40;100.00
36454;BME280;22478;51.740;-1.314;2022-12-11T06:24:27;99487.06;;;-6.95;100.00
36454;BME280;22478;51.740;-1.314;2022-12-11T06:26:54;99489.25;;;-6.71;100.00
36454;BME280;22478;51.740;-1.314;2022-12-11T06:29:22;99483.28;;;-6.10;100.00
36454;BME280;22478;51.740;-1.314;2022-12-11T06:31:49;99483.70;;;-5.28;100.00
36454;BME280;22478;51.740;-1.314;2022-12-11T06:34:16;99481.59;;;-5.02;100.00
36454;BME280;22478;51.740;-1.314;2022-12-11T06:36:44;99472.06;;;-4.38;100.00
36454;BME280;22478;51.740;-1.314;2022-12-11T06:39:11;99477.02;;;-4.12;100.00
36454;BME280;22478;51.740;-1.314;2022-12-11T06:41:39;99476.55;;;-3.32;100.00
36454;BME280;22478;51.740;-1.314;2022-12-11T06:44:06;99480.13;;;-2.61;100.00
36454;BME280;22478;51.740;-1.314;2022-12-11T06:46:33;99483.07;;;-3.67;100.00
36454;BME280;22478;51.740;-1.314;2022-12-11T06:49:01;99482.01;;;-3.46;100.00
36454;BME280;22478;51.740;-1.314;2022-12-11T06:51:28;99485.32;;;-4.14;100.00
36454;BME280;22478;51.740;-1.314;2022-12-11T06:53:56;99497.62;;;-6.69;100.00
36454;BME280;22478;51.740;-1.314;2022-12-11T06:56:24;99503.10;;;-6.01;100.00
36454;BME280;22478;51.740;-1.314;2022-12-11T06:58:51;99500.98;;;-5.58;100.00
36454;BME280;22478;51.740;-1.314;2022-12-11T07:01:20;99494.22;;;-4.17;100.00
36454;BME280;22478;51.740;-1.314;2022-12-11T07:03:48;99496.84;;;-4.86;100.00
36454;BME280;22478;51.740;-1.314;2022-12-11T07:06:15;99498.48;;;-4.93;100.00
36454;BME280;22478;51.740;-1.314;2022-12-11T07:08:43;99493.50;;;-3.92;100.00
36454;BME280;22478;51.740;-1.314;2022-12-11T07:11:11;99498.37;;;-4.38;100.00
36454;BME280;22478;51.740;-1.314;2022-12-11T07:13:39;99509.39;;;-6.24;100.00
36454;BME280;22478;51.740;-1.314;2022-12-11T07:16:07;99513.35;;;-7.71;100.00
36454;BME280;22478;51.740;-1.314;2022-12-11T07:18:35;99501.50;;;-4.01;100.00
36454;BME280;22478;51.740;-1.314;2022-12-11T07:21:03;99500.53;;;-3.34;100.00
36454;BME280;22478;51.740;-1.314;2022-12-11T07:23:31;99513.39;;;-7.47;100.00
36454;BME280;22478;51.740;-1.314;2022-12-11T07:26:04;99514.26;;;-8.32;100.00
36454;BME280;22478;51.740;-1.314;2022-12-11T07:28:31;99509.27;;;-6.13;100.00
36454;BME280;22478;51.740;-1.314;2022-12-11T07:30:59;99514.79;;;-8.84;100.00
36454;BME280;22478;51.740;-1.314;2022-12-11T07:33:26;99516.33;;;-7.62;100.00
36454;BME280;22478;51.740;-1.314;2022-12-11T07:35:54;99513.64;;;-6.38;100.00
36454;BME280;22478;51.740;-1.314;2022-12-11T07:38:21;99517.78;;;-7.14;100.00
36454;BME280;22478;51.740;-1.314;2022-12-11T07:40:48;99514.24;;;-6.29;100.00
36454;BME280;22478;51.740;-1.314;2022-12-11T07:43:16;99515.92;;;-5.51;100.00
36454;BME280;22478;51.740;-1.314;2022-12-11T07:45:43;99513.29;;;-4.76;100.00
36454;BME280;22478;51.740;-1.314;2022-12-11T07:48:10;99518.25;;;-5.34;100.00
36454;BME280;22478;51.740;-1.314;2022-12-11T07:50:38;99514.47;;;-6.68;100.00
36454;BME280;22478;51.740;-1.314;2022-12-11T07:53:05;99520.64;;;-8.10;100.00
36454;BME280;22478;51.740;-1.314;2022-12-11T07:55:33;99520.51;;;-7.01;100.00
36454;BME280;22478;51.740;-1.314;2022-12-11T07:58:00;99513.74;;;-4.62;100.00
36454;BME280;22478;51.740;-1.314;2022-12-11T08:00:27;99509.62;;;-4.90;100.00
36454;BME280;22478;51.740;-1.314;2022-12-11T08:02:55;99513.92;;;-4.51;100.00
36454;BME280;22478;51.740;-1.314;2022-12-11T08:05:22;99504.44;;;-3.33;100.00
36454;BME280;22478;51.740;-1.314;2022-12-11T08:07:50;99502.09;;;-3.97;100.00
36454;BME280;22478;51.740;-1.314;2022-12-11T08:10:18;99503.69;;;-3.54;100.00
36454;BME280;22478;51.740;-1.314;2022-12-11T08:12:44;99501.64;;;-3.44;100.00
36454;BME280;22478;51.740;-1.314;2022-12-11T08:15:12;99507.92;;;-4.98;100.00
36454;BME280;22478;51.740;-1.314;2022-12-11T08:17:39;99509.62;;;-6.51;100.00
36454;BME280;22478;51.740;-1.314;2022-12-11T08:20:07;99519.60;;;-10.30;100.00
36454;BME280;22478;51.740;-1.314;2022-12-11T08:22:35;99511.70;;;-5.30;100.00
36454;BME280;22478;51.740;-1.314;2022-12-11T08:25:03;99509.05;;;-3.86;100.00
36454;BME280;22478;51.740;-1.314;2022-12-11T08:27:31;99502.00;;;-4.10;100.00
36454;BME280;22478;51.740;-1.314;2022-12-11T08:29:58;99514.06;;;-5.68;100.00
36454;BME280;22478;51.740;-1.314;2022-12-11T08:32:26;99508.26;;;-5.08;100.00
36454;BME280;22478;51.740;-1.314;2022-12-11T08:34:53;99507.13;;;-3.80;100.00
36454;BME280;22478;51.740;-1.314;2022-12-11T08:37:20;99504.49;;;-3.65;100.00
36454;BME280;22478;51.740;-1.314;2022-12-11T08:39:47;99504.32;;;-4.63;100.00
36454;BME280;22478;51.740;-1.314;2022-12-11T08:42:15;99505.28;;;-6.10;100.00
36454;BME280;22478;51.740;-1.314;2022-12-11T08:44:42;99506.81;;;-5.36;100.00
36454;BME280;22478;51.740;-1.314;2022-12-11T08:47:10;99508.43;;;-4.58;100.00
36454;BME280;22478;51.740;-1.314;2022-12-11T08:49:37;99501.73;;;-3.40;100.00
36454;BME280;22478;51.740;-1.314;2022-12-11T08:52:05;99512.84;;;-8.18;100.00
36454;BME280;22478;51.740;-1.314;2022-12-11T08:54:32;99514.66;;;-7.56;100.00
36454;BME280;22478;51.740;-1.314;2022-12-11T08:56:59;99512.00;;;-6.84;100.00
36454;BME280;22478;51.740;-1.314;2022-12-11T08:59:27;99516.19;;;-7.17;100.00
36454;BME280;22478;51.740;-1.314;2022-12-11T09:01:54;99510.29;;;-6.00;100.00
36454;BME280;22478;51.740;-1.314;2022-12-11T09:04:22;99509.67;;;-6.70;100.00
36454;BME280;22478;51.740;-1.314;2022-12-11T09:06:49;99505.97;;;-4.28;100.00
36454;BME280;22478;51.740;-1.314;2022-12-11T09:09:16;99508.85;;;-5.92;100.00
36454;BME280;22478;51.740;-1.314;2022-12-11T09:11:44;99515.21;;;-7.65;100.00
36454;BME280;22478;51.740;-1.314;2022-12-11T09:14:11;99511.70;;;-7.36;100.00
36454;BME280;22478;51.740;-1.314;2022-12-11T09:16:39;99514.56;;;-6.69;100.00
36454;BME280;22478;51.740;-1.314;2022-12-11T09:19:09;99514.63;;;-6.04;100.00
36454;BME280;22478;51.740;-1.314;2022-12-11T09:21:38;99535.89;;;-11.50;100.00
36454;BME280;22478;51.740;-1.314;2022-12-11T09:24:05;99529.77;;;-9.54;100.00
36454;BME280;22478;51.740;-1.314;2022-12-11T09:26:33;99520.28;;;-5.97;100.00
36454;BME280;22478;51.740;-1.314;2022-12-11T09:29:02;99524.33;;;-6.17;100.00
36454;BME280;22478;51.740;-1.314;2022-12-11T09:31:33;99520.34;;;-5.22;100.00
36454;BME280;22478;51.740;-1.314;2022-12-11T09:34:02;99536.19;;;-10.45;100.00
36454;BME280;22478;51.740;-1.314;2022-12-11T09:36:31;99524.60;;;-7.07;100.00
36454;BME280;22478;51.740;-1.314;2022-12-11T09:38:59;99523.88;;;-6.72;100.00
36454;BME280;22478;51.740;-1.314;2022-12-11T09:41:35;99522.18;;;-4.77;100.00
36454;BME280;22478;51.740;-1.314;2022-12-11T09:44:15;99516.97;;;-3.64;100.00
36454;BME280;22478;51.740;-1.314;2022-12-11T09:46:44;99522.56;;;-4.17;100.00
36454;BME280;22478;51.740;-1.314;2022-12-11T09:49:21;99525.95;;;-7.06;100.00
36454;BME280;22478;51.740;-1.314;2022-12-11T09:51:59;99525.84;;;-5.90;100.00
36454;BME280;22478;51.740;-1.314;2022-12-11T09:54:29;99519.10;;;-3.66;100.00
36454;BME280;22478;51.740;-1.314;2022-12-11T09:57:04;99516.75;;;-3.25;100.00
36454;BME280;22478;51.740;-1.314;2022-12-11T09:59:43;99525.12;;;-4.34;100.00
36454;BME280;22478;51.740;-1.314;2022-12-11T10:02:24;99545.94;;;-10.97;100.00
36454;BME280;22478;51.740;-1.314;2022-12-11T10:05:02;99535.00;;;-6.62;100.00
36454;BME280;22478;51.740;-1.314;2022-12-11T10:07:40;99529.12;;;-5.48;100.00
36454;BME280;22478;51.740;-1.314;2022-12-11T10:10:17;99530.91;;;-7.40;100.00
36454;BME280;22478;51.740;-1.314;2022-12-11T10:12:51;99532.39;;;-8.23;100.00
36454;BME280;22478;51.740;-1.314;2022-12-11T10:15:33;99529.95;;;-4.89;100.00
36454;BME280;22478;51.740;-1.314;2022-12-11T10:18:04;99515.14;;;-3.25;100.00
36454;BME280;22478;51.740;-1.314;2022-12-11T10:20:35;99521.67;;;-4.15;100.00
36454;BME280;22478;51.740;-1.314;2022-12-11T10:23:05;99524.22;;;-5.29;100.00
36454;BME280;22478;51.740;-1.314;2022-12-11T10:25:35;99526.58;;;-6.71;100.00
36454;BME280;22478;51.740;-1.314;2022-12-11T10:28:10;99524.27;;;-5.83;100.00
36454;BME280;22478;51.740;-1.314;2022-12-11T10:30:40;99521.62;;;-6.26;100.00
36454;BME280;22478;51.740;-1.314;2022-12-11T10:33:15;99515.93;;;-5.26;100.00
36454;BME280;22478;51.740;-1.314;2022-12-11T10:35:47;99505.60;;;-3.33;100.00
36454;BME280;22478;51.740;-1.314;2022-12-11T10:38:20;99513.41;;;-6.16;100.00
36454;BME280;22478;51.740;-1.314;2022-12-11T10:40:51;99517.32;;;-5.14;100.00
36454;BME280;22478;51.740;-1.314;2022-12-11T10:43:19;99520.76;;;-7.07;100.00
36454;BME280;22478;51.740;-1.314;2022-12-11T10:45:51;99522.40;;;-7.41;100.00
36454;BME280;22478;51.740;-1.314;2022-12-11T10:48:19;99521.79;;;-8.53;100.00
36454;BME280;22478;51.740;-1.314;2022-12-11T10:50:56;99520.57;;;-9.19;100.00
36454;BME280;22478;51.740;-1.314;2022-12-11T10:53:25;99522.12;;;-9.20;100.00
36454;BME280;22478;51.740;-1.314;2022-12-11T10:55:53;99512.57;;;-8.36;100.00
36454;BME280;22478;51.740;-1.314;2022-12-11T10:58:22;99506.17;;;-6.83;100.00
36454;BME280;22478;51.740;-1.314;2022-12-11T11:01:03;99503.24;;;-5.21;100.00
36454;BME280;22478;51.740;-1.314;2022-12-11T11:03:32;99507.28;;;-8.83;100.00
36454;BME280;22478;51.740;-1.314;2022-12-11T11:06:15;99507.70;;;-8.66;100.00
36454;BME280;22478;51.740;-1.314;2022-12-11T11:08:44;99512.95;;;-9.98;100.00
36454;BME280;22478;51.740;-1.314;2022-12-11T11:11:22;99498.08;;;-8.43;100.00
36454;BME280;22478;51.740;-1.314;2022-12-11T11:13:50;99492.83;;;-7.41;100.00
36454;BME280;22478;51.740;-1.314;2022-12-11T11:16:20;99487.98;;;-7.48;100.00
36454;BME280;22478;51.740;-1.314;2022-12-11T11:18:51;99482.20;;;-6.59;100.00
36454;BME280;22478;51.740;-1.314;2022-12-11T11:21:21;99476.26;;;-6.01;100.00
36454;BME280;22478;51.740;-1.314;2022-12-11T11:23:49;99464.63;;;-3.25;100.00
36454;BME280;22478;51.740;-1.314;2022-12-11T11:26:18;99464.28;;;-3.66;100.00
36454;BME280;22478;51.740;-1.314;2022-12-11T11:28:47;99459.98;;;-0.77;100.00
36454;BME280;22478;51.740;-1.314;2022-12-11T11:31:16;99455.06;;;0.01;100.00
36454;BME280;22478;51.740;-1.314;2022-12-11T11:33:49;99455.22;;;0.58;100.00
36454;BME280;22478;51.740;-1.314;2022-12-11T11:36:23;99468.49;;;-2.74;100.00
36454;BME280;22478;51.740;-1.314;2022-12-11T11:39:02;99468.96;;;-2.16;100.00
36454;BME280;22478;51.740;-1.314;2022-12-11T11:41:37;99472.11;;;-4.65;100.00
36454;BME280;22478;51.740;-1.314;2022-12-11T11:44:12;99460.76;;;-1.91;100.00
36454;BME280;22478;51.740;-1.314;2022-12-11T11:46:45;99459.31;;;-1.11;100.00
36454;BME280;22478;51.740;-1.314;2022-12-11T11:49:19;99461.37;;;-1.07;100.00
36454;BME280;22478;51.740;-1.314;2022-12-11T11:51:53;99460.11;;;-2.14;100.00
36454;BME280;22478;51.740;-1.314;2022-12-11T11:54:29;99475.75;;;-6.66;100.00
36454;BME280;22478;51.740;-1.314;2022-12-11T11:56:58;99469.27;;;-4.61;100.00
36454;BME280;22478;51.740;-1.314;2022-12-11T11:59:30;99459.45;;;-2.23;100.00
36454;BME280;22478;51.740;-1.314;2022-12-11T12:02:00;99456.53;;;-2.69;100.00
36454;BME280;22478;51.740;-1.314;2022-12-11T12:04:31;99451.63;;;-0.33;100.00
36454;BME280;22478;51.740;-1.314;2022-12-11T12:07:10;99456.33;;;-1.74;100.00
36454;BME280;22478;51.740;-1.314;2022-12-11T12:09:46;99473.32;;;-8.23;100.00
36454;BME280;22478;51.740;-1.314;2022-12-11T12:12:26;99470.43;;;-6.39;100.00
36454;BME280;22478;51.740;-1.314;2022-12-11T12:15:10;99457.76;;;-4.16;100.00
36454;BME280;22478;51.740;-1.314;2022-12-11T12:17:47;99447.14;;;-2.13;100.00
36454;BME280;22478;51.740;-1.314;2022-12-11T12:20:26;99457.69;;;-5.92;100.00
36454;BME280;22478;51.740;-1.314;2022-12-11T12:23:02;99440.93;;;-2.09;100.00
36454;BME280;22478;51.740;-1.314;2022-12-11T12:25:39;99442.60;;;-5.01;100.00
36454;BME280;22478;51.740;-1.314;2022-12-11T12:28:17;99450.18;;;-8.88;100.00
36454;BME280;22478;51.740;-1.314;2022-12-11T12:31:00;99441.70;;;-6.40;100.00
36454;BME280;22478;51.740;-1.314;2022-12-11T12:33:41;99437.50;;;-6.13;100.00
36454;BME280;22478;51.740;-1.314;2022-12-11T12:36:17;99441.34;;;-7.64;100.00
36454;BME280;22478;51.740;-1.314;2022-12-11T12:38:52;99446.80;;;-8.28;100.00
36454;BME280;22478;51.740;-1.314;2022-12-11T12:41:23;99440.93;;;-5.21;100.00
36454;BME280;22478;51.740;-1.314;2022-12-11T12:44:12;99451.87;;;-8.28;100.00
36454;BME280;22478;51.740;-1.314;2022-12-11T12:46:48;99446.55;;;-6.99;100.00
36454;BME280;22478;51.740;-1.314;2022-12-11T12:49:27;99443.58;;;-7.50;100.00
36454;BME280;22478;51.740;-1.314;2022-12-11T12:51:57;99443.95;;;-7.94;100.00
36454;BME280;22478;51.740;-1.314;2022-12-11T12:54:26;99445.50;;;-7.97;100.00